In Rescue
 
Open Full Screen Window  High Contrast Mode
Wind Gusting 00 knots
10
November 19, 2019 11:57 AM CST
Weather Information
Wind Direction
  300 °
Wind Speed
  10 kt (12 mph)
Wind Gust
  00 kt (0 mph)
Altimeter
29.80 in
Visibility
10 SM
Temperature
05° C
41° F
Dewpoint
02° C
36° F
Humidity
81%
1hr Rain Fall
00.00 in.
24hr Rain Fall
00.03 in.
Sky Condition
Missing
VFR

METAR KD39 191757Z AUTO 30010KT 10SM 05/02 A2980 RMK AO2 T00450023 10045 20010

FAA Disclaimer: The data displayed is for advisory purposes only and is not to be used for flight planning or operations.
Missing Cloud Data